Aérodrome :
LOGIN :

S'inscrire | Disclaimer

   EN    FR    IT 

 










Légende :    VFR   VFR Marginal   IFR   IFR Intensif   IFR Très Intensif
Visi : 
Plafond : 
>= 8 km
>= 3000ft
5 à 8 km
1000 à 3000 ft
1500m à 5 km
500 à 1000 ft
800 à 1500m
200 à 500 ft
< 800m
< 200 ft
Symboles :   Orages  Brouillard  Fortes neiges  Fortes précipitations  Vent > 20 kt
SIGMETs :   Divers  Orages  Givrage  Turbulence  Onde Orograph.  Cendres Volcan.






- Altitude de l'aérodrome : 200 ft


EBBL - Klein Brogel AB

DERNIER METAR :
  • 221655Z AUTO 09007KT 9999 NCD 06/04 Q1003 BLU

METARs EXPIRÉS :
  • 221625Z AUTO 10005KT 9999 NCD 07/05 Q1003 BLU
  • 221555Z AUTO 10006KT 9999 NCD 07/05 Q1002 BLU
  • 221525Z AUTO 11007KT 9999 NCD 08/05 Q1002 BLU
  • 221455Z AUTO 09008KT 9999 NCD 09/06 Q1003 BLU
  • 221433Z 09007KT 9999 BKN280 09/06 Q1003 BLU FCST CANCEL

TAF TAF EBBL
Valide du 22 à 13h jusqu'au 22 à 22h UTC


221141Z 2213/2222 15008KT 9999 FEW025 SCT180
BECMG 2214/2216 11007KT
TEMPO 2217/2222 11007G20KT



MET'MAP, la Météo Aéronautique d'un coup d'oeil ! - Copyright ORBIFLY Décembre 2007 - Disclaimer

ORBIFLY MET'MAP TEAM :

Programmation & Développement : Alexandra Zaïnal
Conception & Développement : Baudouin d'Aumeries
Co-Programmation & Développement : Marc-Olivier Méhu
Soutien technique & logistique : Manuel Goepfert

Contact : metmap@orbifly.com




SOURCES & CREDITS :

   NOAA